sensor_id;sensor_type;location;lat;lon;timestamp;temperature;humidity
48589;DHT22;34369;51.174;6.738;2023-03-16T00:01:05;2.20;57.80
48589;DHT22;34369;51.174;6.738;2023-03-16T00:03:37;2.20;58.00
48589;DHT22;34369;51.174;6.738;2023-03-16T00:06:09;2.20;58.10
48589;DHT22;34369;51.174;6.738;2023-03-16T00:08:42;2.20;58.10
48589;DHT22;34369;51.174;6.738;2023-03-16T00:11:14;2.20;58.20
48589;DHT22;34369;51.174;6.738;2023-03-16T00:13:46;2.20;58.30
48589;DHT22;34369;51.174;6.738;2023-03-16T00:16:20;2.20;58.30
48589;DHT22;34369;51.174;6.738;2023-03-16T00:18:53;2.20;58.40
48589;DHT22;34369;51.174;6.738;2023-03-16T00:21:25;2.20;58.30
48589;DHT22;34369;51.174;6.738;2023-03-16T00:23:57;2.20;58.50
48589;DHT22;34369;51.174;6.738;2023-03-16T00:26:29;2.20;58.20
48589;DHT22;34369;51.174;6.738;2023-03-16T00:29:02;2.20;58.40
48589;DHT22;34369;51.174;6.738;2023-03-16T00:31:36;2.20;58.40
48589;DHT22;34369;51.174;6.738;2023-03-16T00:34:09;2.20;58.50
48589;DHT22;34369;51.174;6.738;2023-03-16T00:36:41;2.20;58.50
48589;DHT22;34369;51.174;6.738;2023-03-16T00:39:14;2.20;58.50
48589;DHT22;34369;51.174;6.738;2023-03-16T00:41:46;2.20;58.60
48589;DHT22;34369;51.174;6.738;2023-03-16T00:44:18;2.20;58.70
48589;DHT22;34369;51.174;6.738;2023-03-16T00:46:52;2.20;58.70
48589;DHT22;34369;51.174;6.738;2023-03-16T00:49:24;2.20;58.90
48589;DHT22;34369;51.174;6.738;2023-03-16T00:51:56;2.30;58.90
48589;DHT22;34369;51.174;6.738;2023-03-16T00:54:29;2.30;59.00
48589;DHT22;34369;51.174;6.738;2023-03-16T00:57:02;2.30;59.00
48589;DHT22;34369;51.174;6.738;2023-03-16T00:59:34;2.40;59.10
48589;DHT22;34369;51.174;6.738;2023-03-16T01:02:10;2.40;59.00
48589;DHT22;34369;51.174;6.738;2023-03-16T01:04:43;2.40;59.10
48589;DHT22;34369;51.174;6.738;2023-03-16T01:07:16;2.40;59.00
48589;DHT22;34369;51.174;6.738;2023-03-16T01:09:48;2.40;59.10
48589;DHT22;34369;51.174;6.738;2023-03-16T01:12:21;2.40;59.10
48589;DHT22;34369;51.174;6.738;2023-03-16T01:14:54;2.50;59.20
48589;DHT22;34369;51.174;6.738;2023-03-16T01:17:28;2.50;59.20
48589;DHT22;34369;51.174;6.738;2023-03-16T01:20:05;2.50;59.20
48589;DHT22;34369;51.174;6.738;2023-03-16T01:22:42;2.50;59.20
48589;DHT22;34369;51.174;6.738;2023-03-16T01:25:14;2.50;59.20
48589;DHT22;34369;51.174;6.738;2023-03-16T01:27:47;2.50;59.10
48589;DHT22;34369;51.174;6.738;2023-03-16T01:30:20;2.50;59.10
48589;DHT22;34369;51.174;6.738;2023-03-16T01:32:54;2.50;59.10
48589;DHT22;34369;51.174;6.738;2023-03-16T01:35:26;2.50;59.10
48589;DHT22;34369;51.174;6.738;2023-03-16T01:37:59;2.60;59.00
48589;DHT22;34369;51.174;6.738;2023-03-16T01:40:31;2.60;59.00
48589;DHT22;34369;51.174;6.738;2023-03-16T01:43:05;2.60;58.90
48589;DHT22;34369;51.174;6.738;2023-03-16T01:49:01;2.60;58.80
48589;DHT22;34369;51.174;6.738;2023-03-16T01:51:39;2.70;58.60
48589;DHT22;34369;51.174;6.738;2023-03-16T01:54:20;2.70;58.40
48589;DHT22;34369;51.174;6.738;2023-03-16T01:56:59;2.70;58.30
48589;DHT22;34369;51.174;6.738;2023-03-16T01:59:38;2.80;58.20
48589;DHT22;34369;51.174;6.738;2023-03-16T02:02:15;2.80;58.30
48589;DHT22;34369;51.174;6.738;2023-03-16T02:04:54;2.80;58.00
48589;DHT22;34369;51.174;6.738;2023-03-16T02:07:32;2.80;57.90
48589;DHT22;34369;51.174;6.738;2023-03-16T02:10:10;2.90;57.80
48589;DHT22;34369;51.174;6.738;2023-03-16T02:12:44;2.80;57.70
48589;DHT22;34369;51.174;6.738;2023-03-16T02:15:18;2.90;57.70
48589;DHT22;34369;51.174;6.738;2023-03-16T02:17:50;2.90;57.60
48589;DHT22;34369;51.174;6.738;2023-03-16T02:20:31;2.90;57.50
48589;DHT22;34369;51.174;6.738;2023-03-16T02:23:09;3.00;57.60
48589;DHT22;34369;51.174;6.738;2023-03-16T02:25:54;2.90;57.40
48589;DHT22;34369;51.174;6.738;2023-03-16T02:28:34;3.00;57.40
48589;DHT22;34369;51.174;6.738;2023-03-16T02:31:16;3.00;57.30
48589;DHT22;34369;51.174;6.738;2023-03-16T02:33:49;3.00;57.30
48589;DHT22;34369;51.174;6.738;2023-03-16T02:36:23;3.00;57.20
48589;DHT22;34369;51.174;6.738;2023-03-16T02:38:57;2.90;57.30
48589;DHT22;34369;51.174;6.738;2023-03-16T02:41:29;2.90;57.30
48589;DHT22;34369;51.174;6.738;2023-03-16T02:44:06;2.90;57.30
48589;DHT22;34369;51.174;6.738;2023-03-16T02:46:47;2.90;57.40
48589;DHT22;34369;51.174;6.738;2023-03-16T02:49:24;2.80;57.50
48589;DHT22;34369;51.174;6.738;2023-03-16T02:52:01;2.80;57.30
48589;DHT22;34369;51.174;6.738;2023-03-16T02:54:34;2.80;57.40
48589;DHT22;34369;51.174;6.738;2023-03-16T02:57:06;2.80;57.50
48589;DHT22;34369;51.174;6.738;2023-03-16T02:59:39;2.80;57.50
48589;DHT22;34369;51.174;6.738;2023-03-16T03:02:13;2.80;57.50
48589;DHT22;34369;51.174;6.738;2023-03-16T03:04:45;2.80;57.60
48589;DHT22;34369;51.174;6.738;2023-03-16T03:07:17;2.80;57.80
48589;DHT22;34369;51.174;6.738;2023-03-16T03:09:49;2.80;57.90
48589;DHT22;34369;51.174;6.738;2023-03-16T03:12:23;2.80;58.00
48589;DHT22;34369;51.174;6.738;2023-03-16T03:14:55;2.80;58.00
48589;DHT22;34369;51.174;6.738;2023-03-16T03:17:29;2.80;58.00
48589;DHT22;34369;51.174;6.738;2023-03-16T03:20:02;2.80;58.10
48589;DHT22;34369;51.174;6.738;2023-03-16T03:22:44;2.80;58.00
48589;DHT22;34369;51.174;6.738;2023-03-16T03:25:18;2.80;57.80
48589;DHT22;34369;51.174;6.738;2023-03-16T03:27:54;2.80;57.80
48589;DHT22;34369;51.174;6.738;2023-03-16T03:30:30;2.80;57.70
48589;DHT22;34369;51.174;6.738;2023-03-16T03:33:04;2.80;57.60
48589;DHT22;34369;51.174;6.738;2023-03-16T03:35:36;2.80;57.60
48589;DHT22;34369;51.174;6.738;2023-03-16T03:38:08;2.80;57.50
48589;DHT22;34369;51.174;6.738;2023-03-16T03:40:40;2.80;57.40
48589;DHT22;34369;51.174;6.738;2023-03-16T03:43:13;2.80;57.30
48589;DHT22;34369;51.174;6.738;2023-03-16T03:45:45;2.80;57.20
48589;DHT22;34369;51.174;6.738;2023-03-16T03:48:21;2.80;57.20
48589;DHT22;34369;51.174;6.738;2023-03-16T03:50:54;2.80;57.20
48589;DHT22;34369;51.174;6.738;2023-03-16T03:53:26;2.80;57.10
48589;DHT22;34369;51.174;6.738;2023-03-16T03:55:59;2.90;57.10
48589;DHT22;34369;51.174;6.738;2023-03-16T03:58:31;2.90;57.00
48589;DHT22;34369;51.174;6.738;2023-03-16T04:01:04;2.90;57.00
48589;DHT22;34369;51.174;6.738;2023-03-16T04:03:38;2.90;57.00
48589;DHT22;34369;51.174;6.738;2023-03-16T04:06:10;2.90;57.00
48589;DHT22;34369;51.174;6.738;2023-03-16T04:08:44;2.90;57.00
48589;DHT22;34369;51.174;6.738;2023-03-16T04:11:16;2.90;57.10
48589;DHT22;34369;51.174;6.738;2023-03-16T04:13:50;2.90;57.00
48589;DHT22;34369;51.174;6.738;2023-03-16T04:16:23;3.00;56.80
48589;DHT22;34369;51.174;6.738;2023-03-16T04:18:57;3.00;56.90
48589;DHT22;34369;51.174;6.738;2023-03-16T04:21:31;3.00;56.90
48589;DHT22;34369;51.174;6.738;2023-03-16T04:24:03;3.00;56.90
48589;DHT22;34369;51.174;6.738;2023-03-16T04:26:36;3.00;56.90
48589;DHT22;34369;51.174;6.738;2023-03-16T04:29:08;3.00;56.80
48589;DHT22;34369;51.174;6.738;2023-03-16T04:31:41;3.00;56.70
48589;DHT22;34369;51.174;6.738;2023-03-16T04:34:14;3.00;56.80
48589;DHT22;34369;51.174;6.738;2023-03-16T04:36:46;3.00;56.90
48589;DHT22;34369;51.174;6.738;2023-03-16T04:39:19;3.00;56.70
48589;DHT22;34369;51.174;6.738;2023-03-16T04:41:52;3.00;56.60
48589;DHT22;34369;51.174;6.738;2023-03-16T04:44:25;3.00;56.50
48589;DHT22;34369;51.174;6.738;2023-03-16T04:47:15;3.00;56.50
48589;DHT22;34369;51.174;6.738;2023-03-16T04:49:49;3.00;56.50
48589;DHT22;34369;51.174;6.738;2023-03-16T04:52:21;3.00;56.50
48589;DHT22;34369;51.174;6.738;2023-03-16T04:58:25;3.00;56.60
48589;DHT22;34369;51.174;6.738;2023-03-16T05:01:10;3.00;56.60
48589;DHT22;34369;51.174;6.738;2023-03-16T05:03:43;3.00;56.50
48589;DHT22;34369;51.174;6.738;2023-03-16T05:06:17;3.10;56.60
48589;DHT22;34369;51.174;6.738;2023-03-16T05:08:49;3.00;56.50
48589;DHT22;34369;51.174;6.738;2023-03-16T05:11:21;3.10;56.70
48589;DHT22;34369;51.174;6.738;2023-03-16T05:13:54;3.10;56.70
48589;DHT22;34369;51.174;6.738;2023-03-16T05:16:45;3.10;56.70
48589;DHT22;34369;51.174;6.738;2023-03-16T05:19:18;3.10;56.90
48589;DHT22;34369;51.174;6.738;2023-03-16T05:21:51;3.10;56.80
48589;DHT22;34369;51.174;6.738;2023-03-16T05:24:24;3.10;56.80
48589;DHT22;34369;51.174;6.738;2023-03-16T05:26:57;3.10;56.80
48589;DHT22;34369;51.174;6.738;2023-03-16T05:29:29;3.10;56.80
48589;DHT22;34369;51.174;6.738;2023-03-16T05:32:02;3.10;56.80
48589;DHT22;34369;51.174;6.738;2023-03-16T05:34:36;3.10;56.70
48589;DHT22;34369;51.174;6.738;2023-03-16T05:37:10;3.10;56.80
48589;DHT22;34369;51.174;6.738;2023-03-16T05:39:43;3.10;56.80
48589;DHT22;34369;51.174;6.738;2023-03-16T05:42:17;3.10;56.80
48589;DHT22;34369;51.174;6.738;2023-03-16T05:44:50;3.10;56.90
48589;DHT22;34369;51.174;6.738;2023-03-16T05:47:22;3.10;57.00
48589;DHT22;34369;51.174;6.738;2023-03-16T05:49:55;3.20;56.90
48589;DHT22;34369;51.174;6.738;2023-03-16T05:52:29;3.20;56.70
48589;DHT22;34369;51.174;6.738;2023-03-16T05:55:04;3.20;56.80
48589;DHT22;34369;51.174;6.738;2023-03-16T05:57:38;3.20;56.90
48589;DHT22;34369;51.174;6.738;2023-03-16T06:00:13;3.20;56.90
48589;DHT22;34369;51.174;6.738;2023-03-16T06:02:50;3.20;56.90
48589;DHT22;34369;51.174;6.738;2023-03-16T06:05:23;3.20;56.90
48589;DHT22;34369;51.174;6.738;2023-03-16T06:08:40;3.20;56.80
48589;DHT22;34369;51.174;6.738;2023-03-16T06:11:14;3.30;56.90
48589;DHT22;34369;51.174;6.738;2023-03-16T06:13:47;3.30;56.80
48589;DHT22;34369;51.174;6.738;2023-03-16T06:16:19;3.30;56.80
48589;DHT22;34369;51.174;6.738;2023-03-16T06:18:53;3.30;56.80
48589;DHT22;34369;51.174;6.738;2023-03-16T06:21:27;3.30;57.00
48589;DHT22;34369;51.174;6.738;2023-03-16T06:24:04;3.30;56.90
48589;DHT22;34369;51.174;6.738;2023-03-16T06:26:38;3.30;56.90
48589;DHT22;34369;51.174;6.738;2023-03-16T06:29:11;3.40;57.00
48589;DHT22;34369;51.174;6.738;2023-03-16T06:31:45;3.40;56.90
48589;DHT22;34369;51.174;6.738;2023-03-16T06:34:17;3.50;56.70
48589;DHT22;34369;51.174;6.738;2023-03-16T06:36:52;3.50;57.00
48589;DHT22;34369;51.174;6.738;2023-03-16T06:39:29;3.50;56.80
48589;DHT22;34369;51.174;6.738;2023-03-16T06:42:05;3.50;56.80
48589;DHT22;34369;51.174;6.738;2023-03-16T06:44:38;3.60;56.80
48589;DHT22;34369;51.174;6.738;2023-03-16T06:47:11;3.60;56.60
48589;DHT22;34369;51.174;6.738;2023-03-16T06:49:43;3.60;56.60
48589;DHT22;34369;51.174;6.738;2023-03-16T06:52:17;3.70;56.50
48589;DHT22;34369;51.174;6.738;2023-03-16T06:54:53;3.70;56.50
48589;DHT22;34369;51.174;6.738;2023-03-16T06:57:27;3.70;56.50
48589;DHT22;34369;51.174;6.738;2023-03-16T07:00:01;3.80;56.50
48589;DHT22;34369;51.174;6.738;2023-03-16T07:02:40;3.80;56.40
48589;DHT22;34369;51.174;6.738;2023-03-16T07:05:14;3.80;56.20
48589;DHT22;34369;51.174;6.738;2023-03-16T07:07:48;3.80;56.30
48589;DHT22;34369;51.174;6.738;2023-03-16T07:10:24;3.90;56.30
48589;DHT22;34369;51.174;6.738;2023-03-16T07:12:57;3.90;56.30
48589;DHT22;34369;51.174;6.738;2023-03-16T07:15:30;3.90;56.30
48589;DHT22;34369;51.174;6.738;2023-03-16T07:18:05;4.00;56.40
48589;DHT22;34369;51.174;6.738;2023-03-16T07:20:39;4.00;56.20
48589;DHT22;34369;51.174;6.738;2023-03-16T07:23:12;4.00;56.20
48589;DHT22;34369;51.174;6.738;2023-03-16T07:25:46;4.00;56.20
48589;DHT22;34369;51.174;6.738;2023-03-16T07:28:19;4.10;56.30
48589;DHT22;34369;51.174;6.738;2023-03-16T07:30:52;4.10;56.30
48589;DHT22;34369;51.174;6.738;2023-03-16T07:33:26;4.10;56.40
48589;DHT22;34369;51.174;6.738;2023-03-16T07:35:59;4.20;56.50
48589;DHT22;34369;51.174;6.738;2023-03-16T07:38:34;4.20;56.60
48589;DHT22;34369;51.174;6.738;2023-03-16T07:41:08;4.30;56.50
48589;DHT22;34369;51.174;6.738;2023-03-16T07:43:40;4.30;56.70
48589;DHT22;34369;51.174;6.738;2023-03-16T07:46:14;4.40;57.00
48589;DHT22;34369;51.174;6.738;2023-03-16T07:48:46;4.50;56.90
48589;DHT22;34369;51.174;6.738;2023-03-16T07:51:20;4.50;57.00
48589;DHT22;34369;51.174;6.738;2023-03-16T07:53:52;4.60;56.80
48589;DHT22;34369;51.174;6.738;2023-03-16T07:56:26;4.70;56.50
48589;DHT22;34369;51.174;6.738;2023-03-16T07:59:00;4.70;56.20
48589;DHT22;34369;51.174;6.738;2023-03-16T08:01:33;4.90;56.00
48589;DHT22;34369;51.174;6.738;2023-03-16T08:04:05;4.90;56.00
48589;DHT22;34369;51.174;6.738;2023-03-16T08:06:38;5.00;56.00
48589;DHT22;34369;51.174;6.738;2023-03-16T08:09:10;5.00;56.10
48589;DHT22;34369;51.174;6.738;2023-03-16T08:11:44;5.00;56.20
48589;DHT22;34369;51.174;6.738;2023-03-16T08:14:17;5.10;56.10
48589;DHT22;34369;51.174;6.738;2023-03-16T08:16:50;5.20;56.10
48589;DHT22;34369;51.174;6.738;2023-03-16T08:19:24;5.30;55.90
48589;DHT22;34369;51.174;6.738;2023-03-16T08:22:02;5.40;55.90
48589;DHT22;34369;51.174;6.738;2023-03-16T08:24:35;5.50;55.90
48589;DHT22;34369;51.174;6.738;2023-03-16T08:27:10;5.50;55.70
48589;DHT22;34369;51.174;6.738;2023-03-16T08:29:43;5.60;55.20
48589;DHT22;34369;51.174;6.738;2023-03-16T08:32:15;5.70;55.20
48589;DHT22;34369;51.174;6.738;2023-03-16T08:34:47;5.70;55.00
48589;DHT22;34369;51.174;6.738;2023-03-16T08:37:22;5.80;55.00
48589;DHT22;34369;51.174;6.738;2023-03-16T08:39:55;5.80;55.10
48589;DHT22;34369;51.174;6.738;2023-03-16T08:42:31;5.90;55.10
48589;DHT22;34369;51.174;6.738;2023-03-16T08:45:05;5.90;54.80
48589;DHT22;34369;51.174;6.738;2023-03-16T08:47:42;6.00;54.70
48589;DHT22;34369;51.174;6.738;2023-03-16T08:50:14;6.00;54.20
48589;DHT22;34369;51.174;6.738;2023-03-16T08:52:49;6.10;54.20
48589;DHT22;34369;51.174;6.738;2023-03-16T08:55:21;6.10;53.90
48589;DHT22;34369;51.174;6.738;2023-03-16T08:57:57;6.10;53.70
48589;DHT22;34369;51.174;6.738;2023-03-16T09:00:31;6.10;53.80
48589;DHT22;34369;51.174;6.738;2023-03-16T09:03:05;6.10;53.80
48589;DHT22;34369;51.174;6.738;2023-03-16T09:05:38;6.10;54.00
48589;DHT22;34369;51.174;6.738;2023-03-16T09:08:10;6.10;53.90
48589;DHT22;34369;51.174;6.738;2023-03-16T09:10:43;6.20;53.90
48589;DHT22;34369;51.174;6.738;2023-03-16T09:13:18;6.20;53.90
48589;DHT22;34369;51.174;6.738;2023-03-16T09:16:16;6.30;53.90
48589;DHT22;34369;51.174;6.738;2023-03-16T09:18:48;6.30;53.90
48589;DHT22;34369;51.174;6.738;2023-03-16T09:21:22;6.30;54.10
48589;DHT22;34369;51.174;6.738;2023-03-16T09:23:55;6.40;54.00
48589;DHT22;34369;51.174;6.738;2023-03-16T09:26:28;6.50;54.30
48589;DHT22;34369;51.174;6.738;2023-03-16T09:29:03;6.50;54.80
48589;DHT22;34369;51.174;6.738;2023-03-16T09:31:37;6.70;54.80
48589;DHT22;34369;51.174;6.738;2023-03-16T09:34:10;6.70;54.40
48589;DHT22;34369;51.174;6.738;2023-03-16T09:36:44;6.90;54.10
48589;DHT22;34369;51.174;6.738;2023-03-16T09:39:17;7.00;53.70
48589;DHT22;34369;51.174;6.738;2023-03-16T09:41:54;7.10;53.40
48589;DHT22;34369;51.174;6.738;2023-03-16T09:44:40;7.20;53.40
48589;DHT22;34369;51.174;6.738;2023-03-16T09:47:22;7.30;53.50
48589;DHT22;34369;51.174;6.738;2023-03-16T09:50:00;7.40;53.70
48589;DHT22;34369;51.174;6.738;2023-03-16T09:52:46;7.50;52.90
48589;DHT22;34369;51.174;6.738;2023-03-16T09:55:28;7.50;52.60
48589;DHT22;34369;51.174;6.738;2023-03-16T09:58:08;7.60;52.30
48589;DHT22;34369;51.174;6.738;2023-03-16T10:00:53;7.70;51.90
48589;DHT22;34369;51.174;6.738;2023-03-16T10:03:45;7.70;51.40
48589;DHT22;34369;51.174;6.738;2023-03-16T10:06:28;7.70;51.90
48589;DHT22;34369;51.174;6.738;2023-03-16T10:09:20;7.80;51.60
48589;DHT22;34369;51.174;6.738;2023-03-16T10:12:00;7.80;51.30
48589;DHT22;34369;51.174;6.738;2023-03-16T10:14:42;7.80;51.40
48589;DHT22;34369;51.174;6.738;2023-03-16T10:17:31;7.90;51.70
48589;DHT22;34369;51.174;6.738;2023-03-16T10:20:14;7.90;52.20
48589;DHT22;34369;51.174;6.738;2023-03-16T10:22:50;8.00;51.50
48589;DHT22;34369;51.174;6.738;2023-03-16T10:25:29;8.10;51.40
48589;DHT22;34369;51.174;6.738;2023-03-16T10:28:04;8.10;51.00
48589;DHT22;34369;51.174;6.738;2023-03-16T10:30:39;8.20;51.20
48589;DHT22;34369;51.174;6.738;2023-03-16T10:33:19;8.20;50.90
48589;DHT22;34369;51.174;6.738;2023-03-16T10:36:01;8.30;50.60
48589;DHT22;34369;51.174;6.738;2023-03-16T10:38:40;8.30;51.20
48589;DHT22;34369;51.174;6.738;2023-03-16T10:41:23;8.40;51.20
48589;DHT22;34369;51.174;6.738;2023-03-16T10:44:01;8.50;51.10
48589;DHT22;34369;51.174;6.738;2023-03-16T10:46:39;8.60;51.20
48589;DHT22;34369;51.174;6.738;2023-03-16T10:49:36;8.80;51.70
48589;DHT22;34369;51.174;6.738;2023-03-16T10:52:15;9.00;51.50
48589;DHT22;34369;51.174;6.738;2023-03-16T10:54:53;9.20;51.10
48589;DHT22;34369;51.174;6.738;2023-03-16T10:57:31;9.40;50.50
48589;DHT22;34369;51.174;6.738;2023-03-16T11:00:11;9.50;50.70
48589;DHT22;34369;51.174;6.738;2023-03-16T11:02:52;9.70;50.30
48589;DHT22;34369;51.174;6.738;2023-03-16T11:05:29;10.00;49.80
48589;DHT22;34369;51.174;6.738;2023-03-16T11:08:06;10.00;49.10
48589;DHT22;34369;51.174;6.738;2023-03-16T11:10:45;10.10;49.00
48589;DHT22;34369;51.174;6.738;2023-03-16T11:13:31;10.20;48.70
48589;DHT22;34369;51.174;6.738;2023-03-16T11:16:13;10.30;48.40
48589;DHT22;34369;51.174;6.738;2023-03-16T11:18:55;10.50;48.30
48589;DHT22;34369;51.174;6.738;2023-03-16T11:21:37;10.60;48.30
48589;DHT22;34369;51.174;6.738;2023-03-16T11:24:17;10.80;48.00
48589;DHT22;34369;51.174;6.738;2023-03-16T11:26:57;10.90;48.10
48589;DHT22;34369;51.174;6.738;2023-03-16T11:29:42;11.00;47.70
48589;DHT22;34369;51.174;6.738;2023-03-16T11:32:26;11.20;46.50
48589;DHT22;34369;51.174;6.738;2023-03-16T11:35:01;11.30;46.80
48589;DHT22;34369;51.174;6.738;2023-03-16T11:40:46;11.40;46.70
48589;DHT22;34369;51.174;6.738;2023-03-16T11:46:27;11.60;45.80
48589;DHT22;34369;51.174;6.738;2023-03-16T11:49:20;11.70;45.90
48589;DHT22;34369;51.174;6.738;2023-03-16T11:52:09;11.70;45.60
48589;DHT22;34369;51.174;6.738;2023-03-16T11:54:57;11.80;45.60
48589;DHT22;34369;51.174;6.738;2023-03-16T11:57:47;11.80;44.90
48589;DHT22;34369;51.174;6.738;2023-03-16T12:00:34;11.90;45.20
48589;DHT22;34369;51.174;6.738;2023-03-16T12:03:32;11.90;45.70
48589;DHT22;34369;51.174;6.738;2023-03-16T12:06:23;11.90;45.50
48589;DHT22;34369;51.174;6.738;2023-03-16T12:09:17;12.00;45.00
48589;DHT22;34369;51.174;6.738;2023-03-16T12:12:28;12.10;44.70
48589;DHT22;34369;51.174;6.738;2023-03-16T12:15:23;12.10;44.90
48589;DHT22;34369;51.174;6.738;2023-03-16T12:18:11;12.10;44.50
48589;DHT22;34369;51.174;6.738;2023-03-16T12:20:56;12.10;44.20
48589;DHT22;34369;51.174;6.738;2023-03-16T12:23:33;12.00;44.80
48589;DHT22;34369;51.174;6.738;2023-03-16T12:26:08;12.00;44.90
48589;DHT22;34369;51.174;6.738;2023-03-16T12:28:44;11.90;44.50
48589;DHT22;34369;51.174;6.738;2023-03-16T12:31:25;11.80;44.80
48589;DHT22;34369;51.174;6.738;2023-03-16T12:34:07;11.70;44.60
48589;DHT22;34369;51.174;6.738;2023-03-16T12:37:00;11.70;44.40
48589;DHT22;34369;51.174;6.738;2023-03-16T12:39:54;11.60;44.30
48589;DHT22;34369;51.174;6.738;2023-03-16T12:42:55;11.50;45.20
48589;DHT22;34369;51.174;6.738;2023-03-16T12:45:38;11.50;45.10
48589;DHT22;34369;51.174;6.738;2023-03-16T12:48:21;11.40;45.10
48589;DHT22;34369;51.174;6.738;2023-03-16T12:51:00;11.40;44.70
48589;DHT22;34369;51.174;6.738;2023-03-16T12:53:43;11.40;45.30
48589;DHT22;34369;51.174;6.738;2023-03-16T12:56:20;11.40;45.90
48589;DHT22;34369;51.174;6.738;2023-03-16T12:59:01;11.40;45.50
48589;DHT22;34369;51.174;6.738;2023-03-16T13:01:40;11.40;45.70
48589;DHT22;34369;51.174;6.738;2023-03-16T13:04:34;11.40;45.60
48589;DHT22;34369;51.174;6.738;2023-03-16T13:07:19;11.40;45.10
48589;DHT22;34369;51.174;6.738;2023-03-16T13:09:56;11.50;44.60
48589;DHT22;34369;51.174;6.738;2023-03-16T13:12:33;11.50;45.30
48589;DHT22;34369;51.174;6.738;2023-03-16T13:15:23;11.50;45.30
48589;DHT22;34369;51.174;6.738;2023-03-16T13:18:30;11.60;45.70
48589;DHT22;34369;51.174;6.738;2023-03-16T13:21:35;11.70;45.20
48589;DHT22;34369;51.174;6.738;2023-03-16T13:24:21;11.70;44.80
48589;DHT22;34369;51.174;6.738;2023-03-16T13:27:01;11.80;44.60
48589;DHT22;34369;51.174;6.738;2023-03-16T13:29:35;12.00;46.10
48589;DHT22;34369;51.174;6.738;2023-03-16T13:32:17;12.20;45.90
48589;DHT22;34369;51.174;6.738;2023-03-16T13:34:52;12.50;44.90
48589;DHT22;34369;51.174;6.738;2023-03-16T13:37:31;12.70;45.80
48589;DHT22;34369;51.174;6.738;2023-03-16T13:40:15;13.10;45.60
48589;DHT22;34369;51.174;6.738;2023-03-16T13:42:52;13.40;44.80
48589;DHT22;34369;51.174;6.738;2023-03-16T13:45:31;13.70;44.50
48589;DHT22;34369;51.174;6.738;2023-03-16T13:48:04;13.90;43.80
48589;DHT22;34369;51.174;6.738;2023-03-16T13:50:36;14.10;43.10
48589;DHT22;34369;51.174;6.738;2023-03-16T13:53:17;14.30;43.30
48589;DHT22;34369;51.174;6.738;2023-03-16T13:55:53;14.50;42.30
48589;DHT22;34369;51.174;6.738;2023-03-16T13:58:29;14.60;42.50
48589;DHT22;34369;51.174;6.738;2023-03-16T14:01:05;14.70;42.00
48589;DHT22;34369;51.174;6.738;2023-03-16T14:03:47;14.80;41.70
48589;DHT22;34369;51.174;6.738;2023-03-16T14:06:25;14.90;42.10
48589;DHT22;34369;51.174;6.738;2023-03-16T14:09:29;15.00;41.50
48589;DHT22;34369;51.174;6.738;2023-03-16T14:12:35;15.00;41.30
48589;DHT22;34369;51.174;6.738;2023-03-16T14:15:29;15.10;39.60
48589;DHT22;34369;51.174;6.738;2023-03-16T14:18:13;15.10;41.20
48589;DHT22;34369;51.174;6.738;2023-03-16T14:21:14;15.10;40.40
48589;DHT22;34369;51.174;6.738;2023-03-16T14:23:52;15.10;40.90
48589;DHT22;34369;51.174;6.738;2023-03-16T14:26:38;15.10;40.80
48589;DHT22;34369;51.174;6.738;2023-03-16T14:29:17;15.10;39.50
48589;DHT22;34369;51.174;6.738;2023-03-16T14:31:55;15.00;40.00
48589;DHT22;34369;51.174;6.738;2023-03-16T14:34:36;15.00;40.10
48589;DHT22;34369;51.174;6.738;2023-03-16T14:37:10;14.90;39.80
48589;DHT22;34369;51.174;6.738;2023-03-16T14:39:59;14.90;40.30
48589;DHT22;34369;51.174;6.738;2023-03-16T14:42:34;14.70;40.30
48589;DHT22;34369;51.174;6.738;2023-03-16T14:45:12;14.70;40.70
48589;DHT22;34369;51.174;6.738;2023-03-16T14:47:48;14.50;40.40
48589;DHT22;34369;51.174;6.738;2023-03-16T14:50:24;14.50;40.70
48589;DHT22;34369;51.174;6.738;2023-03-16T14:52:57;14.40;40.60
48589;DHT22;34369;51.174;6.738;2023-03-16T14:55:30;14.30;40.70
48589;DHT22;34369;51.174;6.738;2023-03-16T14:58:05;14.30;40.70
48589;DHT22;34369;51.174;6.738;2023-03-16T15:00:37;14.20;40.90
48589;DHT22;34369;51.174;6.738;2023-03-16T15:03:13;14.10;40.80
48589;DHT22;34369;51.174;6.738;2023-03-16T15:05:48;14.10;40.80
48589;DHT22;34369;51.174;6.738;2023-03-16T15:08:23;14.00;40.80
48589;DHT22;34369;51.174;6.738;2023-03-16T15:10:59;13.90;40.90
48589;DHT22;34369;51.174;6.738;2023-03-16T15:13:37;13.90;41.00
48589;DHT22;34369;51.174;6.738;2023-03-16T15:16:33;13.70;40.70
48589;DHT22;34369;51.174;6.738;2023-03-16T15:19:06;13.60;40.90
48589;DHT22;34369;51.174;6.738;2023-03-16T15:21:39;13.50;41.20
48589;DHT22;34369;51.174;6.738;2023-03-16T15:24:12;13.50;41.20
48589;DHT22;34369;51.174;6.738;2023-03-16T15:26:47;13.30;41.40
48589;DHT22;34369;51.174;6.738;2023-03-16T15:29:21;13.30;41.50
48589;DHT22;34369;51.174;6.738;2023-03-16T15:31:54;13.30;41.50
48589;DHT22;34369;51.174;6.738;2023-03-16T15:34:27;13.20;41.30
48589;DHT22;34369;51.174;6.738;2023-03-16T15:37:00;13.10;41.30
48589;DHT22;34369;51.174;6.738;2023-03-16T15:39:34;13.10;41.50
48589;DHT22;34369;51.174;6.738;2023-03-16T15:42:13;13.00;41.50
48589;DHT22;34369;51.174;6.738;2023-03-16T15:44:51;13.00;41.80
48589;DHT22;34369;51.174;6.738;2023-03-16T15:47:26;12.90;41.90
48589;DHT22;34369;51.174;6.738;2023-03-16T15:50:01;12.90;41.80
48589;DHT22;34369;51.174;6.738;2023-03-16T15:52:36;12.80;42.10
48589;DHT22;34369;51.174;6.738;2023-03-16T15:55:15;12.70;42.00
48589;DHT22;34369;51.174;6.738;2023-03-16T15:57:58;12.60;42.30
48589;DHT22;34369;51.174;6.738;2023-03-16T16:00:36;12.50;42.10
48589;DHT22;34369;51.174;6.738;2023-03-16T16:03:11;12.50;42.20
48589;DHT22;34369;51.174;6.738;2023-03-16T16:05:44;12.40;42.40
48589;DHT22;34369;51.174;6.738;2023-03-16T16:08:17;12.30;42.50
48589;DHT22;34369;51.174;6.738;2023-03-16T16:10:51;12.30;42.60
48589;DHT22;34369;51.174;6.738;2023-03-16T16:13:26;12.20;42.60
48589;DHT22;34369;51.174;6.738;2023-03-16T16:16:02;12.10;42.80
48589;DHT22;34369;51.174;6.738;2023-03-16T16:18:37;12.00;42.80
48589;DHT22;34369;51.174;6.738;2023-03-16T16:21:15;12.00;42.90
48589;DHT22;34369;51.174;6.738;2023-03-16T16:23:49;11.90;43.00
48589;DHT22;34369;51.174;6.738;2023-03-16T16:26:26;11.90;43.50
48589;DHT22;34369;51.174;6.738;2023-03-16T16:29:00;11.80;43.50
48589;DHT22;34369;51.174;6.738;2023-03-16T16:31:39;11.80;43.60
48589;DHT22;34369;51.174;6.738;2023-03-16T16:34:14;11.70;43.60
48589;DHT22;34369;51.174;6.738;2023-03-16T16:36:48;11.60;43.90
48589;DHT22;34369;51.174;6.738;2023-03-16T16:39:22;11.60;43.70
48589;DHT22;34369;51.174;6.738;2023-03-16T16:41:57;11.50;44.00
48589;DHT22;34369;51.174;6.738;2023-03-16T16:44:32;11.50;44.10
48589;DHT22;34369;51.174;6.738;2023-03-16T16:47:18;11.50;44.20
48589;DHT22;34369;51.174;6.738;2023-03-16T16:50:13;11.40;44.30
48589;DHT22;34369;51.174;6.738;2023-03-16T16:52:47;11.40;44.40
48589;DHT22;34369;51.174;6.738;2023-03-16T16:55:24;11.40;44.50